Terminal Aerodrome Forecast
Issued by NWS Quad Cities IA IL

Home | Current Version | Previous Version | Text Only | Print | Product List | Glossary Off
Versions: 1 2 3 4 5 6 7 8 9 10 11 12 13 14 15 16 17 18 19 20 21 22 23 24 25 26 27 28 29 30 31 32 33 34 35 36 37 38 39 40

000
FTUS43 KDVN 311120
TAFDBQ
TAF
KDBQ 311120Z 3112/0112 00000KT 4SM BR SCT003
      TEMPO 3112/3113 1/2SM FG SKC
     FM311500 18008KT P6SM SCT035
     FM011000 18005KT 4SM BR SKC=

USA.gov is the U.S. government's official web portal to all federal, state and local government web resources and services.